Time;durP1;ratioP1;P1;durP2;ratioP2;P2;SDS_P1;SDS_P2;PMS_P1;PMS_P2;Temp;Humidity;BMP_temperature;BMP_pressure;BME280_temperature;BME280_humidity;BME280_pressure;Samples;Min_cycle;Max_cycle;Signal;HPM_P1;HPM_P2
2020/12/28 00:00:31;;;;;;;35.17;18.40;;;;;;;-1.96;83.72;100844.95;1711640;83;21681;-73
2020/12/28 00:02:58;;;;;;;32.17;16.93;;;;;;;-1.95;83.80;100835.09;1711798;83;21634;-72
2020/12/28 00:05:26;;;;;;;45.67;20.88;;;;;;;-1.94;83.70;100837.69;1711617;83;21658;-73
2020/12/28 00:07:54;;;;;;;38.95;19.25;;;;;;;-1.93;83.71;100834.30;1711482;83;21145;-74
2020/12/28 00:10:22;;;;;;;38.48;17.10;;;;;;;-1.93;83.51;100818.80;1711603;83;21714;-74
2020/12/28 00:12:50;;;;;;;34.70;17.45;;;;;;;-1.92;83.33;100826.99;1711529;83;21143;-73
2020/12/28 00:15:24;;;;;;;41.68;18.02;;;;;;;-1.91;83.26;100823.59;1711658;83;21163;-74
2020/12/28 00:17:53;;;;;;;43.55;18.40;;;;;;;-1.93;83.16;100818.80;1711726;83;21187;-74
2020/12/28 00:20:23;;;;;;;38.33;18.73;;;;;;;-1.93;83.15;100804.61;1711722;83;21218;-74
2020/12/28 00:22:50;;;;;;;35.28;19.12;;;;;;;-1.93;83.06;100812.35;1711540;83;21386;-73
2020/12/28 00:25:27;;;;;;;36.50;17.62;;;;;;;-1.92;82.61;100810.21;1697458;83;21219;-74
2020/12/28 00:27:56;;;;;;;35.38;17.77;;;;;;;-1.91;82.72;100806.81;1668609;86;21173;-73
2020/12/28 00:30:23;;;;;;;46.20;20.68;;;;;;;-1.91;82.68;100799.06;1668596;86;21853;-73
2020/12/28 00:32:51;;;;;;;38.00;18.73;;;;;;;-1.89;82.47;100802.95;1668582;86;21223;-72
2020/12/28 00:35:23;;;;;;;34.73;16.02;;;;;;;-1.90;82.44;100798.22;1697638;80;21311;-64
2020/12/28 00:37:53;;;;;;;35.03;16.73;;;;;;;-1.88;82.26;100798.69;1776420;79;21193;-64
2020/12/28 00:40:21;;;;;;;36.93;20.17;;;;;;;-1.87;82.14;100798.70;1798542;78;21210;-63
2020/12/28 00:42:48;;;;;;;39.75;20.40;;;;;;;-1.86;81.86;100791.44;1798814;79;21353;-62
2020/12/28 00:45:16;;;;;;;39.40;19.00;;;;;;;-1.83;81.34;100786.33;1798752;79;21210;-63
2020/12/28 00:47:44;;;;;;;43.70;21.97;;;;;;;-1.83;80.92;100777.72;1780499;79;21404;-63
2020/12/28 00:50:12;;;;;;;39.70;19.57;;;;;;;-1.79;80.95;100770.51;1784711;79;21225;-63
2020/12/28 00:52:40;;;;;;;38.48;18.27;;;;;;;-1.76;80.35;100777.02;1799003;79;21661;-61
2020/12/28 00:55:08;;;;;;;37.98;18.37;;;;;;;-1.75;80.01;100774.88;1798929;79;21589;-63
2020/12/28 00:57:36;;;;;;;36.68;17.62;;;;;;;-1.72;79.94;100761.64;1772081;79;21553;-62
2020/12/28 01:00:05;;;;;;;35.88;17.87;;;;;;;-1.69;79.80;100762.13;1709410;83;22268;-64
2020/12/28 01:02:45;;;;;;;37.63;18.37;;;;;;;-1.63;79.62;100751.94;1845818;76;22253;-63
2020/12/28 01:05:15;;;;;;;42.27;19.50;;;;;;;-1.64;79.63;100760.94;1815562;79;21186;-63
2020/12/28 01:07:43;;;;;;;38.95;16.07;;;;;;;-1.65;79.38;100761.36;1809029;79;21574;-63
2020/12/28 01:10:27;;;;;;;34.17;15.57;;;;;;;-1.57;79.26;100754.64;1846125;76;23248;-62
2020/12/28 01:12:57;;;;;;;37.05;18.20;;;;;;;-1.66;78.91;100751.84;1816013;78;21163;-63
2020/12/28 01:15:25;;;;;;;36.35;16.95;;;;;;;-1.65;79.15;100748.45;1816315;79;22273;-62
2020/12/28 01:17:58;;;;;;;34.40;16.35;;;;;;;-1.61;79.33;100743.81;1815893;79;21012;-62
2020/12/28 01:20:40;;;;;;;51.45;22.65;;;;;;;-1.60;79.16;100741.66;1814932;79;21152;-61
2020/12/28 01:23:09;;;;;;;;;;;;;;;-1.60;79.33;100733.92;1786124;79;21548;-61
2020/12/28 01:25:39;;;;;;;39.67;17.62;;;;;;;-1.62;78.70;100735.59;1814885;79;20244;-62
2020/12/28 01:28:07;;;;;;;33.48;15.15;;;;;;;-1.62;78.93;100738.17;1815979;79;21575;-64
2020/12/28 01:30:36;;;;;;;32.53;14.30;;;;;;;-1.61;79.02;100729.60;1816018;79;21513;-62
2020/12/28 01:33:15;;;;;;;31.40;15.28;;;;;;;-1.60;78.96;100723.59;1811384;79;21135;-61
2020/12/28 01:35:47;;;;;;;38.90;17.65;;;;;;;-1.58;79.23;100719.33;1815018;79;21206;-62
2020/12/28 01:38:15;;;;;;;37.48;15.00;;;;;;;-1.55;78.85;100719.38;1772741;78;21154;-64
2020/12/28 01:40:44;;;;;;;40.35;17.40;;;;;;;-1.52;78.49;100709.14;1733107;81;22236;-62
2020/12/28 01:43:13;;;;;;;37.53;15.38;;;;;;;-1.52;78.21;100708.24;1760838;81;21191;-63
2020/12/28 01:45:42;;;;;;;49.35;17.55;;;;;;;-1.49;78.20;100710.48;1765037;81;21633;-63
2020/12/28 01:48:12;;;;;;;39.42;17.15;;;;;;;-1.45;78.13;100700.20;1765137;79;21133;-61
2020/12/28 01:50:40;;;;;;;43.00;15.32;;;;;;;-1.42;78.02;100701.58;1778045;80;21175;-64
2020/12/28 01:53:08;;;;;;;34.53;17.20;;;;;;;-1.42;77.92;100695.13;1747665;82;21354;-62
2020/12/28 01:55:39;;;;;;;37.50;15.28;;;;;;;-1.37;78.08;100688.33;1729680;82;21155;-62
2020/12/28 01:58:08;;;;;;;34.73;16.60;;;;;;;-1.35;77.89;100690.53;1764040;80;21238;-62
2020/12/28 02:00:36;;;;;;;41.48;15.43;;;;;;;-1.31;77.80;100684.59;1747642;81;21839;-63
2020/12/28 02:03:07;;;;;;;34.45;15.58;;;;;;;-1.34;77.69;100689.67;1756926;80;21154;-64
2020/12/28 02:05:37;;;;;;;30.52;14.20;;;;;;;-1.30;77.82;100687.61;1776498;80;21213;-62
2020/12/28 02:08:06;;;;;;;32.10;15.63;;;;;;;-1.29;78.20;100685.06;1777340;80;21179;-64
2020/12/28 02:10:35;;;;;;;34.78;13.38;;;;;;;-1.28;77.67;100687.22;1749270;80;21686;-62
2020/12/28 02:13:03;;;;;;;28.10;14.33;;;;;;;-1.26;77.98;100675.21;1778586;80;21650;-63
2020/12/28 02:15:33;;;;;;;27.45;14.28;;;;;;;-1.23;78.27;100675.26;1783899;80;21224;-62
2020/12/28 02:18:20;;;;;;;30.62;14.47;;;;;;;-1.25;78.04;100671.77;1773809;80;21207;-63
2020/12/28 02:20:55;;;;;;;26.25;14.35;;;;;;;-1.23;77.93;100663.63;1772560;80;21186;-62
2020/12/28 02:23:23;;;;;;;33.75;15.95;;;;;;;-1.21;77.89;100666.25;1768189;80;21170;-63
2020/12/28 02:25:52;;;;;;;31.15;15.50;;;;;;;-1.21;77.64;100666.25;1753003;80;21178;-63
2020/12/28 02:28:20;;;;;;;33.15;16.48;;;;;;;-1.21;77.71;100659.36;1742696;82;21203;-62
2020/12/28 02:30:47;;;;;;;19.60;9.53;;;;;;;-1.21;77.47;100661.95;1737732;82;21573;-62
2020/12/28 02:33:26;;;;;;;26.60;12.65;;;;;;;-1.23;77.41;100661.05;1735344;82;21650;-63
2020/12/28 02:36:11;;;;;;;27.70;13.10;;;;;;;-1.17;77.63;100659.88;1820889;78;22846;-63
2020/12/28 02:38:39;;;;;;;27.35;12.85;;;;;;;-1.22;77.74;100656.34;1707743;84;22222;-61
2020/12/28 02:41:07;;;;;;;29.98;14.87;;;;;;;-1.23;77.88;100657.17;1711487;83;21203;-63
2020/12/28 02:43:53;;;;;;;27.55;13.68;;;;;;;-1.27;77.80;100659.23;1707655;84;21135;-62
2020/12/28 02:46:40;;;;;;;27.30;14.15;;;;;;;-1.27;78.12;100664.41;1711541;83;21386;-61
2020/12/28 02:49:23;;;;;;;32.63;16.13;;;;;;;-1.24;78.37;100655.44;1844209;76;24398;-63
2020/12/28 02:52:09;;;;;;;30.50;14.95;;;;;;;-1.32;78.51;100644.06;1814494;79;21170;-63
2020/12/28 02:54:55;;;;;;;29.80;14.90;;;;;;;-1.38;78.74;100654.27;1752690;81;21291;-62
2020/12/28 02:57:41;;;;;;;28.20;14.38;;;;;;;-1.42;79.17;100662.83;1752717;81;21210;-63
2020/12/28 03:00:29;;;;;;;30.02;14.40;;;;;;;-1.42;79.16;100664.13;1752778;81;21645;-62
2020/12/28 03:03:16;;;;;;;32.28;14.33;;;;;;;-1.49;79.33;100660.11;1750937;77;21798;-63
2020/12/28 03:05:53;;;;;;;31.70;16.03;;;;;;;-1.42;79.37;100652.50;1840023;75;22790;-62
2020/12/28 03:08:40;;;;;;;27.07;14.63;;;;;;;-1.47;79.42;100648.53;1783962;80;21147;-62
2020/12/28 03:11:25;;;;;;;29.80;14.87;;;;;;;-1.48;79.32;100651.50;1783974;79;22163;-61
2020/12/28 03:14:13;;;;;;;27.07;11.12;;;;;;;-1.46;79.30;100649.39;1783890;79;21674;-62
2020/12/28 03:16:59;;;;;;;33.88;16.70;;;;;;;-1.50;79.58;100640.27;1784009;80;21499;-63
2020/12/28 03:19:44;;;;;;;37.73;18.85;;;;;;;-1.50;79.66;100641.98;1783941;80;21147;-62
2020/12/28 03:22:31;;;;;;;40.10;18.85;;;;;;;-1.54;79.80;100652.70;1784076;80;21131;-63
2020/12/28 03:25:17;;;;;;;38.42;15.72;;;;;;;-1.54;79.86;100658.25;1783887;79;21377;-63
2020/12/28 03:28:04;;;;;;;37.05;17.10;;;;;;;-1.53;80.15;100653.56;1783649;80;21178;-63
2020/12/28 03:30:50;;;;;;;42.35;19.05;;;;;;;-1.50;79.97;100653.18;1783806;80;21154;-63
2020/12/28 03:33:33;;;;;;;36.00;15.57;;;;;;;-1.45;79.84;100643.37;1846182;76;22741;-61
2020/12/28 03:36:19;;;;;;;37.45;16.90;;;;;;;-1.53;79.84;100636.77;1788015;78;21155;-62
2020/12/28 03:39:05;;;;;;;39.40;18.50;;;;;;;-1.52;79.77;100644.56;1783766;80;21294;-63
2020/12/28 03:41:52;;;;;;;34.23;16.00;;;;;;;-1.51;79.96;100635.09;1783741;80;21162;-62
2020/12/28 03:44:35;;;;;;;31.33;16.32;;;;;;;-1.50;79.76;100644.14;1744301;80;21543;-63
2020/12/28 03:47:24;;;;;;;26.73;12.97;;;;;;;-1.45;79.75;100637.77;1811784;75;22748;-63
2020/12/28 03:50:10;;;;;;;34.75;16.93;;;;;;;-1.51;79.56;100628.20;1783865;80;21183;-64
2020/12/28 03:52:57;;;;;;;32.75;16.48;;;;;;;-1.46;79.69;100626.14;1783736;80;21622;-64
2020/12/28 03:56:43;;;;;;;33.50;17.43;;;;;;;-1.40;79.42;100618.48;1811377;79;22559;-62
2020/12/28 03:59:28;;;;;;;35.40;17.75;;;;;;;-1.49;79.52;100626.53;1758541;80;21201;-63
2020/12/28 04:02:15;;;;;;;34.48;16.77;;;;;;;-1.49;79.45;100620.07;1732806;82;21628;-64
2020/12/28 04:05:01;;;;;;;32.78;17.12;;;;;;;-1.49;79.43;100605.00;1769279;80;21741;-64
2020/12/28 04:07:47;;;;;;;34.55;16.95;;;;;;;-1.49;79.51;100608.88;1749323;82;21170;-64
2020/12/28 04:10:34;;;;;;;41.37;17.98;;;;;;;-1.49;79.55;100607.16;1749526;82;21207;-63
2020/12/28 04:13:14;;;;;;;36.50;17.70;;;;;;;-1.45;79.43;100602.03;1835219;78;22800;-63
2020/12/28 04:15:43;;;;;;;31.65;15.18;;;;;;;-1.49;79.50;100603.28;1807404;79;21804;-62
2020/12/28 04:18:11;;;;;;;33.13;17.07;;;;;;;-1.51;79.62;100604.95;1807495;79;21478;-63
2020/12/28 04:20:42;;;;;;;39.53;17.67;;;;;;;-1.49;79.34;100614.91;1807441;79;21595;-63
2020/12/28 04:23:10;;;;;;;43.13;18.77;;;;;;;-1.48;79.41;100606.30;1807607;79;21555;-63
2020/12/28 04:25:37;;;;;;;36.98;19.27;;;;;;;-1.49;79.17;100607.58;1807424;79;21622;-62
2020/12/28 04:28:07;;;;;;;33.48;16.02;;;;;;;-1.46;79.12;100601.59;1807470;79;21191;-63
2020/12/28 04:30:34;;;;;;;42.03;19.60;;;;;;;-1.46;79.35;100592.56;1807569;79;21377;-63
2020/12/28 04:33:02;;;;;;;41.25;18.92;;;;;;;-1.45;79.10;100593.86;1807292;79;21147;-62
2020/12/28 04:35:32;;;;;;;37.75;16.82;;;;;;;-1.42;79.07;100590.49;1779743;79;21103;-62
2020/12/28 04:38:02;;;;;;;38.08;17.25;;;;;;;-1.42;78.91;100583.60;1775520;79;21122;-62
2020/12/28 04:40:30;;;;;;;35.88;15.88;;;;;;;-1.39;78.78;100586.23;1775829;80;21590;-62
2020/12/28 04:42:58;;;;;;;39.65;18.90;;;;;;;-1.40;78.39;100583.61;1745901;80;21280;-62
2020/12/28 04:45:26;;;;;;;36.83;18.30;;;;;;;-1.40;78.28;100596.53;1745601;80;22205;-62
2020/12/28 04:47:57;;;;;;;28.62;14.28;;;;;;;-1.39;78.07;100582.78;1775492;80;21155;-62
2020/12/28 04:50:25;;;;;;;35.28;16.25;;;;;;;-1.37;78.03;100576.80;1775625;79;21130;-63
2020/12/28 04:52:54;;;;;;;34.13;16.17;;;;;;;-1.33;77.86;100585.50;1775551;80;21111;-63
2020/12/28 04:55:21;;;;;;;31.33;16.23;;;;;;;-1.32;77.65;100580.77;1775677;80;22347;-62
2020/12/28 04:57:51;;;;;;;31.87;16.15;;;;;;;-1.30;77.68;100575.20;1775366;80;21147;-62
2020/12/28 05:00:19;;;;;;;38.60;18.17;;;;;;;-1.28;77.35;100572.23;1754379;80;21202;-62
2020/12/28 05:02:47;;;;;;;33.67;14.68;;;;;;;-1.31;77.45;100573.48;1744819;82;21222;-63
2020/12/28 05:05:15;;;;;;;36.28;18.07;;;;;;;-1.31;77.30;100572.19;1744917;82;21154;-61
2020/12/28 05:07:50;;;;;;;37.00;16.20;;;;;;;-1.34;77.24;100568.23;1744710;82;21199;-62
2020/12/28 05:10:26;;;;;;;30.88;14.70;;;;;;;-1.34;77.28;100557.89;1744897;82;21678;-62
2020/12/28 05:12:55;;;;;;;31.15;13.28;;;;;;;-1.33;77.14;100558.36;1749216;81;21642;-61
2020/12/28 05:15:22;;;;;;;35.38;15.93;;;;;;;-1.35;77.11;100551.00;1750971;81;21148;-62
2020/12/28 05:17:55;;;;;;;37.63;14.07;;;;;;;-1.35;77.24;100564.78;1750800;81;21158;-62
2020/12/28 05:20:25;;;;;;;34.48;17.73;;;;;;;-1.38;77.18;100561.26;1750936;81;21186;-63
2020/12/28 05:22:54;;;;;;;35.75;18.52;;;;;;;-1.37;77.36;100545.80;1750848;81;21202;-65
2020/12/28 05:25:24;;;;;;;35.10;15.03;;;;;;;-1.39;77.26;100550.49;1750449;82;22111;-62
2020/12/28 05:27:52;;;;;;;39.33;19.90;;;;;;;-1.40;77.35;100552.21;1770087;80;21803;-63
2020/12/28 05:30:21;;;;;;;37.17;17.17;;;;;;;-1.38;77.30;100554.80;1753381;80;21657;-63
2020/12/28 05:32:49;;;;;;;38.95;19.98;;;;;;;-1.37;77.43;100549.67;1781115;79;21378;-63
2020/12/28 05:35:17;;;;;;;41.68;20.70;;;;;;;-1.36;77.52;100569.91;1781258;80;21186;-62
2020/12/28 05:37:46;;;;;;;32.03;14.75;;;;;;;-1.34;77.57;100548.86;1781335;79;21130;-63
2020/12/28 05:40:14;;;;;;;42.15;20.57;;;;;;;-1.35;77.51;100558.75;1781332;80;21698;-62
2020/12/28 05:42:52;;;;;;;47.13;21.00;;;;;;;-1.33;77.71;100571.28;1753009;80;21123;-63
2020/12/28 05:45:20;;;;;;;49.05;22.75;;;;;;;-1.32;77.83;100545.87;1781271;80;21360;-62
2020/12/28 05:47:55;;;;;;;50.70;21.82;;;;;;;-1.30;77.63;100545.06;1781174;79;21234;-63
2020/12/28 05:50:30;;;;;;;51.28;21.23;;;;;;;-1.28;77.65;100543.38;1780878;79;21213;-62
2020/12/28 05:53:01;;;;;;;46.33;21.87;;;;;;;-1.28;77.55;100547.25;1781108;80;21459;-61
2020/12/28 05:55:31;;;;;;;52.95;23.67;;;;;;;-1.24;77.38;100549.48;1781541;80;21143;-62
2020/12/28 05:57:59;;;;;;;59.20;24.65;;;;;;;-1.23;77.32;100558.96;1781319;79;22798;-61
2020/12/28 06:00:27;;;;;;;38.78;19.48;;;;;;;-1.22;77.34;100565.89;1781290;80;21709;-66
2020/12/28 06:02:58;;;;;;;47.50;21.45;;;;;;;-1.24;77.11;100556.34;1781372;79;22039;-64
2020/12/28 06:05:25;;;;;;;40.67;18.93;;;;;;;-1.22;77.07;100569.77;1750378;82;21625;-66
2020/12/28 06:07:54;;;;;;;41.90;20.05;;;;;;;-1.21;77.00;100576.66;1750274;81;21131;-66
2020/12/28 06:10:22;;;;;;;49.80;22.25;;;;;;;-1.19;76.71;100560.77;1750467;82;21598;-65
2020/12/28 06:12:57;;;;;;;39.27;17.62;;;;;;;-1.17;76.80;100570.71;1750080;82;21204;-65
2020/12/28 06:15:25;;;;;;;34.98;16.30;;;;;;;-1.16;76.89;100555.64;1750489;82;21622;-67
2020/12/28 06:17:54;;;;;;;34.58;14.45;;;;;;;-1.15;76.36;100565.16;1723471;82;21170;-64
2020/12/28 06:20:30;;;;;;;48.25;22.77;;;;;;;-1.14;76.08;100561.70;1750375;82;21597;-65
2020/12/28 06:23:05;;;;;;;60.90;26.77;;;;;;;-1.14;75.88;100567.30;1704761;80;22266;-74
2020/12/28 06:25:32;;;;;;;51.13;22.75;;;;;;;-1.16;75.86;100558.22;1709734;83;21200;-74
2020/12/28 06:28:00;;;;;;;49.75;21.87;;;;;;;-1.14;75.77;100568.60;1710520;83;21195;-75
2020/12/28 06:30:31;;;;;;;49.35;22.93;;;;;;;-1.15;75.60;100550.94;1710161;83;21210;-76
2020/12/28 06:33:03;;;;;;;47.75;19.23;;;;;;;-1.13;75.66;100547.06;1691823;84;21251;-75
2020/12/28 06:35:32;;;;;;;46.23;22.80;;;;;;;-1.14;75.30;100559.13;1691462;84;21371;-77
2020/12/28 06:38:01;;;;;;;42.93;17.92;;;;;;;-1.12;75.58;100565.19;1691389;84;21183;-74
2020/12/28 06:40:39;;;;;;;48.95;21.25;;;;;;;-1.13;75.16;100568.64;1691540;83;21215;-76
2020/12/28 06:43:15;;;;;;;43.75;20.48;;;;;;;-1.13;74.92;100569.93;1693292;83;21174;-74
2020/12/28 06:45:49;;;;;;;39.58;18.82;;;;;;;-1.15;74.79;100546.16;1691246;84;21203;-75
2020/12/28 06:48:24;;;;;;;47.08;21.85;;;;;;;-1.14;74.91;100561.70;1691578;84;21365;-75
2020/12/28 06:50:53;;;;;;;37.28;18.73;;;;;;;-1.13;75.03;100560.88;1691356;84;21214;-75
2020/12/28 06:53:24;;;;;;;41.35;20.23;;;;;;;-1.13;75.26;100537.63;1691325;84;21212;-74
2020/12/28 06:55:52;;;;;;;45.33;20.95;;;;;;;-1.14;75.29;100545.34;1691530;84;21220;-74
2020/12/28 06:58:20;;;;;;;39.08;19.27;;;;;;;-1.13;75.94;100538.91;1690233;83;21664;-74
2020/12/28 07:00:48;;;;;;;43.95;19.60;;;;;;;-1.13;75.88;100524.70;1691442;84;22285;-76
2020/12/28 07:03:17;;;;;;;33.38;14.43;;;;;;;-1.13;75.59;100537.63;1658482;84;21188;-73
2020/12/28 07:05:45;;;;;;;47.50;20.35;;;;;;;-1.16;75.69;100534.96;1689896;83;21197;-74
2020/12/28 07:08:13;;;;;;;39.88;19.37;;;;;;;-1.18;76.07;100534.06;1691274;84;21446;-74
2020/12/28 07:10:40;;;;;;;41.73;18.90;;;;;;;-1.18;75.83;100515.97;1681193;84;21207;-74
2020/12/28 07:13:08;;;;;;;36.03;17.40;;;;;;;-1.17;75.74;100519.45;1691306;84;21483;-75
2020/12/28 07:15:36;;;;;;;46.18;20.40;;;;;;;-1.21;75.48;100509.47;1691612;84;21189;-74
2020/12/28 07:18:10;;;;;;;43.02;19.25;;;;;;;-1.20;75.53;100520.23;1691779;84;21217;-75
2020/12/28 07:20:37;;;;;;;38.30;18.20;;;;;;;-1.17;75.50;100509.97;1691650;84;21169;-75
2020/12/28 07:23:06;;;;;;;39.38;17.95;;;;;;;-1.17;75.40;100509.97;1692610;81;21105;-66
2020/12/28 07:25:34;;;;;;;42.60;19.35;;;;;;;-1.18;75.42;100499.60;1705653;84;22319;-67
2020/12/28 07:28:02;;;;;;;31.50;16.05;;;;;;;-1.18;75.17;100501.75;1708312;82;21667;-67
2020/12/28 07:30:30;;;;;;;33.13;16.75;;;;;;;-1.15;74.74;100503.12;1706077;82;21196;-67
2020/12/28 07:33:00;;;;;;;35.50;16.42;;;;;;;-1.14;74.40;100495.80;1702828;84;21208;-67
2020/12/28 07:35:29;;;;;;;32.23;14.85;;;;;;;-1.16;74.79;100481.12;1716051;82;21425;-67
2020/12/28 07:37:57;;;;;;;34.70;15.72;;;;;;;-1.13;73.88;100500.14;1650568;86;21244;-69
2020/12/28 07:40:25;;;;;;;33.88;15.68;;;;;;;-1.09;74.29;100499.32;1650574;86;21208;-69
2020/12/28 07:42:55;;;;;;;36.53;16.70;;;;;;;-1.13;73.98;100487.61;1682067;84;22207;-65
2020/12/28 07:45:23;;;;;;;32.53;16.57;;;;;;;-1.13;74.19;100498.85;1677771;83;21226;-68
2020/12/28 07:47:58;;;;;;;37.78;17.32;;;;;;;-1.11;74.09;100488.52;1651127;85;21201;-69
2020/12/28 07:50:25;;;;;;;35.05;16.25;;;;;;;-1.09;74.11;100485.53;1678072;85;21358;-68
2020/12/28 07:53:12;;;;;;;34.20;15.55;;;;;;;-1.07;73.95;100483.42;1650897;85;21209;-67
2020/12/28 07:55:51;;;;;;;28.45;11.50;;;;;;;-1.06;74.24;100480.00;1678170;85;21198;-67
2020/12/28 07:58:27;;;;;;;32.98;15.43;;;;;;;-1.04;73.61;100484.31;1678364;85;21169;-69
2020/12/28 08:00:55;;;;;;;32.35;15.48;;;;;;;-1.04;73.31;100510.16;1680666;84;21174;-66
2020/12/28 08:03:35;;;;;;;35.55;16.95;;;;;;;-1.02;73.77;100496.84;1694989;83;21667;-66
2020/12/28 08:06:06;;;;;;;31.73;14.95;;;;;;;-1.01;73.54;100486.54;1623999;86;21223;-70
2020/12/28 08:08:34;;;;;;;28.10;15.20;;;;;;;-0.99;73.09;100480.08;1675896;80;21187;-76
2020/12/28 08:11:06;;;;;;;24.63;11.12;;;;;;;-0.97;73.15;100475.80;1687721;84;21211;-78
2020/12/28 08:13:37;;;;;;;29.50;14.47;;;;;;;-0.98;72.99;100479.25;1697528;83;21166;-78
2020/12/28 08:16:13;;;;;;;40.15;15.35;;;;;;;-0.95;72.79;100480.58;1689142;84;21508;-76
2020/12/28 08:18:49;;;;;;;28.00;13.70;;;;;;;-0.98;72.75;100496.05;1697547;84;21198;-77
2020/12/28 08:21:18;;;;;;;32.65;14.50;;;;;;;-0.95;73.35;100476.70;1667881;86;21626;-78
2020/12/28 08:23:58;;;;;;;31.40;14.47;;;;;;;-0.93;73.24;100481.47;1667767;86;21139;-77
2020/12/28 08:26:28;;;;;;;33.92;15.70;;;;;;;-0.94;73.21;100481.05;1669267;84;21210;-77
2020/12/28 08:29:00;;;;;;;29.30;15.28;;;;;;;-0.96;73.47;100482.73;1746088;81;21816;-78
2020/12/28 08:31:35;;;;;;;35.33;15.65;;;;;;;-0.97;73.42;100483.56;1767790;81;21607;-74
2020/12/28 08:34:15;;;;;;;31.23;14.43;;;;;;;-0.95;73.45;100449.12;1740105;79;21205;-68
2020/12/28 08:36:54;;;;;;;28.42;13.90;;;;;;;-0.92;73.19;100459.93;1674439;78;21195;-76
2020/12/28 08:39:25;;;;;;;19.48;9.20;;;;;;;-0.95;73.36;100447.83;1670401;85;21224;-77
2020/12/28 08:41:59;;;;;;;25.30;10.80;;;;;;;-0.97;73.36;100452.53;1665911;86;21409;-75
2020/12/28 08:44:37;;;;;;;39.25;16.52;;;;;;;-0.99;73.30;100468.05;1668583;86;21193;-75
2020/12/28 08:47:12;;;;;;;32.98;15.55;;;;;;;-0.97;73.81;100452.53;1661542;86;21145;-75
2020/12/28 08:49:45;;;;;;;33.83;15.32;;;;;;;-0.95;73.82;100458.17;1642751;86;21165;-75
2020/12/28 08:52:15;;;;;;;37.75;15.15;;;;;;;-0.92;73.82;100461.22;1673967;79;21187;-68
2020/12/28 08:55:02;;;;;;;44.33;17.70;;;;;;;-0.91;74.00;100459.97;1674016;85;21751;-67
2020/12/28 08:57:35;;;;;;;35.55;15.80;;;;;;;-0.90;74.01;100450.48;1673504;85;21832;-65
2020/12/28 09:00:05;;;;;;;38.53;18.27;;;;;;;-0.87;74.16;100445.38;1700337;84;22268;-66
2020/12/28 09:02:32;;;;;;;33.60;14.53;;;;;;;-0.82;74.27;100441.56;1700085;84;21243;-66
2020/12/28 09:05:00;;;;;;;35.78;15.60;;;;;;;-0.82;73.65;100432.09;1696701;82;22032;-66
2020/12/28 09:07:28;;;;;;;30.68;12.88;;;;;;;-0.82;73.76;100421.73;1676838;84;22293;-68
2020/12/28 09:09:56;;;;;;;41.40;17.70;;;;;;;-0.81;73.70;100422.60;1705203;83;21620;-64
2020/12/28 09:12:23;;;;;;;27.22;11.12;;;;;;;-0.83;74.07;100430.76;1708503;82;22235;-67
2020/12/28 09:14:51;;;;;;;32.23;13.38;;;;;;;-0.83;73.83;100425.16;1690614;83;21605;-65
2020/12/28 09:17:19;;;;;;;29.23;14.83;;;;;;;-0.82;74.38;100419.16;1717463;82;21648;-67
2020/12/28 09:19:51;;;;;;;36.05;15.93;;;;;;;-0.80;74.37;100427.80;1676150;84;21464;-69
2020/12/28 09:22:24;;;;;;;35.85;16.87;;;;;;;-0.83;74.42;100417.40;1667151;84;21654;-66
2020/12/28 09:24:59;;;;;;;23.20;11.08;;;;;;;-0.79;74.50;100408.84;1643001;87;21233;-65
2020/12/28 09:27:28;;;;;;;32.17;14.83;;;;;;;-0.80;74.11;100421.34;1685845;84;21674;-65
2020/12/28 09:29:56;;;;;;;33.80;14.23;;;;;;;-0.79;74.59;100412.72;1701347;84;21900;-66
2020/12/28 09:32:25;;;;;;;35.68;15.78;;;;;;;-0.79;74.33;100406.69;1701655;82;21379;-66
2020/12/28 09:34:54;;;;;;;35.88;15.63;;;;;;;-0.77;74.51;100408.44;1701894;84;22237;-66
2020/12/28 09:37:22;;;;;;;25.27;11.63;;;;;;;-0.78;74.50;100398.96;1690014;84;22161;-67
2020/12/28 09:39:49;;;;;;;30.95;14.53;;;;;;;-0.76;74.59;100401.14;1685828;80;21707;-75
2020/12/28 09:42:17;;;;;;;40.15;15.05;;;;;;;-0.74;74.89;100368.39;1693221;83;21262;-80
2020/12/28 09:44:47;;;;;;;30.37;15.05;;;;;;;-0.72;74.49;100347.72;1742350;82;21645;-76
2020/12/28 09:47:15;;;;;;;28.30;13.50;;;;;;;-0.73;74.55;100349.45;1734342;82;21690;-78
2020/12/28 09:49:43;;;;;;;32.53;15.13;;;;;;;-0.74;74.47;100368.39;1750225;82;21191;-76
2020/12/28 09:52:14;;;;;;;25.97;12.95;;;;;;;-0.72;74.66;100357.64;1716344;83;21143;-76
2020/12/28 09:54:43;;;;;;;31.55;14.50;;;;;;;-0.71;74.74;100346.89;1714173;81;21149;-76
2020/12/28 09:57:10;;;;;;;28.83;13.00;;;;;;;-0.68;74.80;100358.56;1700418;81;21532;-76
2020/12/28 09:59:39;;;;;;;28.23;14.55;;;;;;;-0.67;74.66;100357.30;1715356;81;21156;-79
2020/12/28 10:02:07;;;;;;;30.48;14.13;;;;;;;-0.65;74.94;100349.09;1720532;82;22240;-79
2020/12/28 10:04:35;;;;;;;32.42;14.95;;;;;;;-0.65;74.65;100347.80;1715138;83;21199;-76
2020/12/28 10:07:02;;;;;;;31.20;15.18;;;;;;;-0.67;74.89;100336.61;1708752;83;21402;-76
2020/12/28 10:09:47;;;;;;;32.43;12.13;;;;;;;-0.65;75.04;100337.46;1828175;76;22692;-76
2020/12/28 10:12:18;;;;;;;31.15;14.33;;;;;;;-0.68;75.13;100347.78;1806563;77;26752;-77
2020/12/28 10:14:45;;;;;;;27.22;11.57;;;;;;;-0.68;75.29;100354.25;1814046;77;21179;-77
2020/12/28 10:17:13;;;;;;;34.05;15.60;;;;;;;-0.68;75.36;100336.58;1750298;81;21200;-77
2020/12/28 10:19:41;;;;;;;34.70;15.13;;;;;;;-0.70;75.65;100336.55;1768489;80;21171;-77
2020/12/28 10:22:08;;;;;;;29.02;14.68;;;;;;;-0.69;75.83;100337.41;1748262;81;21783;-77
2020/12/28 10:24:35;;;;;;;26.33;13.78;;;;;;;-0.68;76.08;100319.33;1762793;80;21157;-77
2020/12/28 10:27:04;;;;;;;26.45;13.68;;;;;;;-0.66;76.42;100309.88;1740513;79;21809;-77
2020/12/28 10:29:32;;;;;;;40.80;16.75;;;;;;;-0.67;76.96;100315.91;1720608;82;21126;-76
2020/12/28 10:32:00;;;;;;;30.43;15.18;;;;;;;-0.65;77.19;100308.14;1732454;82;21805;-77
2020/12/28 10:34:28;;;;;;;32.75;16.32;;;;;;;-0.65;77.60;100301.25;1731912;82;21152;-77
2020/12/28 10:36:55;;;;;;;32.30;15.00;;;;;;;-0.66;77.72;100299.95;1732321;82;21185;-77
2020/12/28 10:39:23;;;;;;;39.27;16.12;;;;;;;-0.67;77.68;100297.80;1779080;77;21481;-66
2020/12/28 10:41:51;;;;;;;32.30;15.78;;;;;;;-0.67;78.01;100296.91;1790728;78;21167;-68
2020/12/28 10:44:19;;;;;;;30.30;14.68;;;;;;;-0.70;78.19;100301.63;1777635;80;21178;-62
2020/12/28 10:46:51;;;;;;;37.78;17.57;;;;;;;-0.69;78.83;100289.16;1741185;81;22173;-64
2020/12/28 10:49:21;;;;;;;35.78;15.30;;;;;;;-0.68;79.11;100303.81;1709668;82;21160;-64
2020/12/28 10:51:50;;;;;;;34.67;16.02;;;;;;;-0.73;79.41;100282.20;1728448;82;21550;-62
2020/12/28 10:54:18;;;;;;;39.27;15.90;;;;;;;-0.76;79.87;100280.89;1738391;82;21140;-64
2020/12/28 10:56:47;;;;;;;35.23;16.85;;;;;;;-0.77;80.07;100270.09;1747393;82;21369;-63
2020/12/28 10:59:15;;;;;;;32.95;16.45;;;;;;;-0.78;79.76;100268.37;1747269;82;21216;-64
2020/12/28 11:01:42;;;;;;;37.63;17.60;;;;;;;-0.77;79.98;100257.59;1747461;82;21148;-63
2020/12/28 11:04:10;;;;;;;36.28;17.23;;;;;;;-0.76;79.73;100261.50;1726833;82;21372;-64
2020/12/28 11:06:42;;;;;;;37.83;15.83;;;;;;;-0.74;79.94;100266.23;1727380;81;21179;-63
2020/12/28 11:09:13;;;;;;;41.23;18.17;;;;;;;-0.73;80.17;100265.83;1741086;82;21187;-64
2020/12/28 11:11:49;;;;;;;36.45;17.10;;;;;;;-0.72;79.99;100252.03;1747413;82;21643;-64
2020/12/28 11:14:18;;;;;;;34.90;16.62;;;;;;;-0.73;79.83;100258.94;1736253;82;21184;-64
2020/12/28 11:16:46;;;;;;;33.75;16.62;;;;;;;-0.72;80.19;100254.19;1732895;82;21192;-63
2020/12/28 11:19:14;;;;;;;33.02;15.28;;;;;;;-0.71;80.13;100240.42;1747041;82;21227;-64
2020/12/28 11:21:45;;;;;;;35.88;15.98;;;;;;;-0.71;80.12;100232.66;1746796;82;21651;-66
2020/12/28 11:24:13;;;;;;;;;;;;;;;-0.73;80.15;100233.07;1740680;81;21953;-65
2020/12/28 11:26:41;;;;;;;38.25;17.98;;;;;;;-0.73;80.24;100236.95;1732988;81;20275;-65
2020/12/28 11:29:08;;;;;;;42.45;17.48;;;;;;;-0.72;80.38;100239.96;1746638;82;22398;-65
2020/12/28 11:31:36;;;;;;;38.65;18.50;;;;;;;-0.70;80.46;100243.44;1742580;82;21731;-62